KLAR/LAR METAR and TAF weather

Enter ICAO airport designator
Station Type Date Time Source
KLAR METAR 2021/06/22 21:53 UTC NOAA

KLAR 222153Z AUTO 28026G38KT 10SM CLR 30/M06 A3005 RMK AO2 PK WND 29040/2116 SLP060 T03001056


Station Type Date Time Source
KLAR Decoded METAR 2021/06/22 21:53 UTC NOAA

LARAMIE REGIONAL AIRPORT, WY, United States (KLAR) 41-19N 105-40W 2216M
Jun 22, 2021 - 05:53 PM EDT / 2021.06.22 2153 UTC
Wind: from the W (280 degrees) at 30 MPH (26 KT) gusting to 44 MPH (38 KT):0
Visibility: 10 mile(s):0
Sky conditions: clear
Temperature: 86.0 F (30.0 C)
Dew Point: 21.9 F (-5.6 C)
Relative Humidity: 9%
Pressure (altimeter): 30.05 in. Hg (1017 hPa)
ob: KLAR 222153Z AUTO 28026G38KT 10SM CLR 30/M06 A3005 RMK AO2 PK WND 29040/2116 SLP060 T03001056
cycle: 22

Station Type Date Time Source
KLAR TAF 2021/06/22 18:36 UTC NOAA

TAF KLAR 221734Z 2218/2318 31018G28KT P6SM SKC
FM222100 31025G35KT P6SM SCT100
FM230100 17007KT P6SM BKN100
FM231600 27012KT P6SM FEW250

Example: see airport list